sensor_id;sensor_type;location;lat;lon;timestamp;P1;durP1;ratioP1;P2;durP2;ratioP2
19519;SDS011;9904;52.246;20.898;2023-08-08T00:00:21;4.70;;;1.80;;
19519;SDS011;9904;52.246;20.898;2023-08-08T00:02:48;6.97;;;1.70;;
19519;SDS011;9904;52.246;20.898;2023-08-08T00:05:14;4.23;;;1.80;;
19519;SDS011;9904;52.246;20.898;2023-08-08T00:07:42;9.93;;;2.70;;
19519;SDS011;9904;52.246;20.898;2023-08-08T00:10:08;3.80;;;1.43;;
19519;SDS011;9904;52.246;20.898;2023-08-08T00:12:35;10.43;;;2.30;;
19519;SDS011;9904;52.246;20.898;2023-08-08T00:15:02;5.43;;;2.03;;
19519;SDS011;9904;52.246;20.898;2023-08-08T00:17:28;6.37;;;1.70;;
19519;SDS011;9904;52.246;20.898;2023-08-08T00:19:55;6.37;;;1.70;;
19519;SDS011;9904;52.246;20.898;2023-08-08T00:22:22;7.43;;;2.40;;
19519;SDS011;9904;52.246;20.898;2023-08-08T00:24:48;6.00;;;2.30;;
19519;SDS011;9904;52.246;20.898;2023-08-08T00:27:15;5.23;;;2.13;;
19519;SDS011;9904;52.246;20.898;2023-08-08T00:29:42;7.03;;;1.77;;
19519;SDS011;9904;52.246;20.898;2023-08-08T00:32:09;3.93;;;1.67;;
19519;SDS011;9904;52.246;20.898;2023-08-08T00:34:35;4.83;;;1.80;;
19519;SDS011;9904;52.246;20.898;2023-08-08T00:37:02;7.97;;;1.90;;
19519;SDS011;9904;52.246;20.898;2023-08-08T00:39:28;9.50;;;2.13;;
19519;SDS011;9904;52.246;20.898;2023-08-08T00:41:55;8.07;;;2.27;;
19519;SDS011;9904;52.246;20.898;2023-08-08T00:44:22;7.53;;;2.00;;
19519;SDS011;9904;52.246;20.898;2023-08-08T00:46:49;8.17;;;1.97;;
19519;SDS011;9904;52.246;20.898;2023-08-08T00:49:15;6.73;;;2.30;;
19519;SDS011;9904;52.246;20.898;2023-08-08T00:51:42;10.17;;;2.80;;
19519;SDS011;9904;52.246;20.898;2023-08-08T00:54:09;10.70;;;2.17;;
19519;SDS011;9904;52.246;20.898;2023-08-08T00:56:36;6.63;;;2.03;;
19519;SDS011;9904;52.246;20.898;2023-08-08T00:59:02;9.37;;;2.10;;
19519;SDS011;9904;52.246;20.898;2023-08-08T01:01:29;9.63;;;2.13;;
19519;SDS011;9904;52.246;20.898;2023-08-08T01:03:56;8.33;;;2.13;;
19519;SDS011;9904;52.246;20.898;2023-08-08T01:06:29;7.70;;;2.57;;
19519;SDS011;9904;52.246;20.898;2023-08-08T01:09:03;7.27;;;2.00;;
19519;SDS011;9904;52.246;20.898;2023-08-08T01:11:33;6.50;;;1.70;;
19519;SDS011;9904;52.246;20.898;2023-08-08T01:14:02;9.43;;;1.87;;
19519;SDS011;9904;52.246;20.898;2023-08-08T01:16:29;6.60;;;2.00;;
19519;SDS011;9904;52.246;20.898;2023-08-08T01:18:56;9.60;;;2.10;;
19519;SDS011;9904;52.246;20.898;2023-08-08T01:21:24;5.00;;;1.70;;
19519;SDS011;9904;52.246;20.898;2023-08-08T01:23:53;8.20;;;2.10;;
19519;SDS011;9904;52.246;20.898;2023-08-08T01:26:21;7.37;;;2.10;;
19519;SDS011;9904;52.246;20.898;2023-08-08T01:28:48;7.20;;;2.20;;
19519;SDS011;9904;52.246;20.898;2023-08-08T01:31:19;6.60;;;2.70;;
19519;SDS011;9904;52.246;20.898;2023-08-08T01:33:46;7.97;;;2.70;;
19519;SDS011;9904;52.246;20.898;2023-08-08T01:36:20;8.10;;;2.00;;
19519;SDS011;9904;52.246;20.898;2023-08-08T01:38:50;8.43;;;2.17;;
19519;SDS011;9904;52.246;20.898;2023-08-08T01:41:18;7.57;;;1.90;;
19519;SDS011;9904;52.246;20.898;2023-08-08T01:43:45;5.83;;;1.77;;
19519;SDS011;9904;52.246;20.898;2023-08-08T01:46:12;3.37;;;1.53;;
19519;SDS011;9904;52.246;20.898;2023-08-08T01:48:38;6.57;;;1.90;;
19519;SDS011;9904;52.246;20.898;2023-08-08T01:51:05;8.63;;;2.30;;
19519;SDS011;9904;52.246;20.898;2023-08-08T01:53:31;9.07;;;2.30;;
19519;SDS011;9904;52.246;20.898;2023-08-08T01:55:58;3.50;;;1.70;;
19519;SDS011;9904;52.246;20.898;2023-08-08T01:58:25;7.83;;;2.00;;
19519;SDS011;9904;52.246;20.898;2023-08-08T02:00:51;12.20;;;2.43;;
19519;SDS011;9904;52.246;20.898;2023-08-08T02:03:18;5.30;;;1.47;;
19519;SDS011;9904;52.246;20.898;2023-08-08T02:05:45;6.87;;;1.80;;
19519;SDS011;9904;52.246;20.898;2023-08-08T02:08:11;7.27;;;2.40;;
19519;SDS011;9904;52.246;20.898;2023-08-08T02:10:39;7.67;;;1.80;;
19519;SDS011;9904;52.246;20.898;2023-08-08T02:13:05;9.43;;;2.03;;
19519;SDS011;9904;52.246;20.898;2023-08-08T02:15:32;9.10;;;2.30;;
19519;SDS011;9904;52.246;20.898;2023-08-08T02:17:59;8.90;;;2.20;;
19519;SDS011;9904;52.246;20.898;2023-08-08T02:20:26;10.10;;;2.17;;
19519;SDS011;9904;52.246;20.898;2023-08-08T02:22:52;6.37;;;2.10;;
19519;SDS011;9904;52.246;20.898;2023-08-08T02:25:19;11.63;;;2.23;;
19519;SDS011;9904;52.246;20.898;2023-08-08T02:27:45;10.90;;;2.17;;
19519;SDS011;9904;52.246;20.898;2023-08-08T02:30:12;9.57;;;1.73;;
19519;SDS011;9904;52.246;20.898;2023-08-08T02:32:39;8.67;;;2.00;;
19519;SDS011;9904;52.246;20.898;2023-08-08T02:35:06;5.10;;;1.67;;
19519;SDS011;9904;52.246;20.898;2023-08-08T02:37:33;11.37;;;2.27;;
19519;SDS011;9904;52.246;20.898;2023-08-08T02:40:00;12.43;;;2.47;;
19519;SDS011;9904;52.246;20.898;2023-08-08T02:42:27;9.47;;;2.17;;
19519;SDS011;9904;52.246;20.898;2023-08-08T02:44:53;7.30;;;1.93;;
19519;SDS011;9904;52.246;20.898;2023-08-08T02:47:20;10.13;;;2.10;;
19519;SDS011;9904;52.246;20.898;2023-08-08T02:49:47;4.87;;;2.13;;
19519;SDS011;9904;52.246;20.898;2023-08-08T02:52:13;7.70;;;2.23;;
19519;SDS011;9904;52.246;20.898;2023-08-08T02:54:40;5.37;;;2.17;;
19519;SDS011;9904;52.246;20.898;2023-08-08T02:57:06;8.27;;;2.27;;
19519;SDS011;9904;52.246;20.898;2023-08-08T02:59:33;11.47;;;2.23;;
19519;SDS011;9904;52.246;20.898;2023-08-08T03:02:00;6.13;;;2.00;;
19519;SDS011;9904;52.246;20.898;2023-08-08T03:04:27;9.73;;;2.07;;
19519;SDS011;9904;52.246;20.898;2023-08-08T03:06:54;4.13;;;1.80;;
19519;SDS011;9904;52.246;20.898;2023-08-08T03:09:20;12.23;;;2.20;;
19519;SDS011;9904;52.246;20.898;2023-08-08T03:11:47;11.10;;;2.20;;
19519;SDS011;9904;52.246;20.898;2023-08-08T03:14:14;8.57;;;2.10;;
19519;SDS011;9904;52.246;20.898;2023-08-08T03:16:40;11.27;;;2.50;;
19519;SDS011;9904;52.246;20.898;2023-08-08T03:19:07;6.33;;;2.00;;
19519;SDS011;9904;52.246;20.898;2023-08-08T03:21:35;9.10;;;2.00;;
19519;SDS011;9904;52.246;20.898;2023-08-08T03:24:01;8.13;;;2.27;;
19519;SDS011;9904;52.246;20.898;2023-08-08T03:26:28;7.30;;;2.00;;
19519;SDS011;9904;52.246;20.898;2023-08-08T03:28:55;10.73;;;2.57;;
19519;SDS011;9904;52.246;20.898;2023-08-08T03:31:22;10.80;;;2.00;;
19519;SDS011;9904;52.246;20.898;2023-08-08T03:33:48;7.07;;;1.97;;
19519;SDS011;9904;52.246;20.898;2023-08-08T03:36:15;7.10;;;2.30;;
19519;SDS011;9904;52.246;20.898;2023-08-08T03:38:42;8.47;;;2.23;;
19519;SDS011;9904;52.246;20.898;2023-08-08T03:41:12;8.73;;;2.20;;
19519;SDS011;9904;52.246;20.898;2023-08-08T03:43:40;8.67;;;2.20;;
19519;SDS011;9904;52.246;20.898;2023-08-08T03:46:06;14.47;;;2.67;;
19519;SDS011;9904;52.246;20.898;2023-08-08T03:48:33;6.20;;;1.63;;
19519;SDS011;9904;52.246;20.898;2023-08-08T03:51:03;12.93;;;1.90;;
19519;SDS011;9904;52.246;20.898;2023-08-08T03:53:30;10.57;;;1.80;;
19519;SDS011;9904;52.246;20.898;2023-08-08T03:55:56;10.03;;;2.30;;
19519;SDS011;9904;52.246;20.898;2023-08-08T03:58:23;12.83;;;2.20;;
19519;SDS011;9904;52.246;20.898;2023-08-08T04:00:50;7.90;;;2.50;;
19519;SDS011;9904;52.246;20.898;2023-08-08T04:03:17;6.43;;;1.70;;
19519;SDS011;9904;52.246;20.898;2023-08-08T04:05:45;4.67;;;2.00;;
19519;SDS011;9904;52.246;20.898;2023-08-08T04:08:13;7.07;;;1.90;;
19519;SDS011;9904;52.246;20.898;2023-08-08T04:10:40;5.43;;;2.50;;
19519;SDS011;9904;52.246;20.898;2023-08-08T04:13:07;11.13;;;2.43;;
19519;SDS011;9904;52.246;20.898;2023-08-08T04:15:35;10.07;;;2.00;;
19519;SDS011;9904;52.246;20.898;2023-08-08T04:18:02;10.40;;;2.33;;
19519;SDS011;9904;52.246;20.898;2023-08-08T04:20:28;8.00;;;2.10;;
19519;SDS011;9904;52.246;20.898;2023-08-08T04:22:55;6.30;;;1.83;;
19519;SDS011;9904;52.246;20.898;2023-08-08T04:25:21;8.80;;;2.00;;
19519;SDS011;9904;52.246;20.898;2023-08-08T04:27:48;8.33;;;2.00;;
19519;SDS011;9904;52.246;20.898;2023-08-08T04:30:15;5.30;;;2.40;;
19519;SDS011;9904;52.246;20.898;2023-08-08T04:32:41;6.73;;;2.20;;
19519;SDS011;9904;52.246;20.898;2023-08-08T04:35:08;4.33;;;1.90;;
19519;SDS011;9904;52.246;20.898;2023-08-08T04:37:35;5.97;;;2.10;;
19519;SDS011;9904;52.246;20.898;2023-08-08T04:40:01;6.77;;;2.00;;
19519;SDS011;9904;52.246;20.898;2023-08-08T04:42:29;8.07;;;1.80;;
19519;SDS011;9904;52.246;20.898;2023-08-08T04:44:56;10.47;;;2.20;;
19519;SDS011;9904;52.246;20.898;2023-08-08T04:47:22;8.50;;;1.77;;
19519;SDS011;9904;52.246;20.898;2023-08-08T04:49:49;7.27;;;2.10;;
19519;SDS011;9904;52.246;20.898;2023-08-08T04:52:16;5.00;;;1.60;;
19519;SDS011;9904;52.246;20.898;2023-08-08T04:54:42;10.97;;;1.90;;
19519;SDS011;9904;52.246;20.898;2023-08-08T04:57:10;7.47;;;2.70;;
19519;SDS011;9904;52.246;20.898;2023-08-08T04:59:36;5.43;;;1.80;;
19519;SDS011;9904;52.246;20.898;2023-08-08T05:02:03;7.30;;;1.70;;
19519;SDS011;9904;52.246;20.898;2023-08-08T05:04:30;10.47;;;2.10;;
19519;SDS011;9904;52.246;20.898;2023-08-08T05:06:57;8.07;;;2.03;;
19519;SDS011;9904;52.246;20.898;2023-08-08T05:09:23;6.30;;;2.00;;
19519;SDS011;9904;52.246;20.898;2023-08-08T05:11:52;3.73;;;1.63;;
19519;SDS011;9904;52.246;20.898;2023-08-08T05:14:19;5.70;;;2.00;;
19519;SDS011;9904;52.246;20.898;2023-08-08T05:16:46;6.83;;;2.00;;
19519;SDS011;9904;52.246;20.898;2023-08-08T05:19:12;6.13;;;1.90;;
19519;SDS011;9904;52.246;20.898;2023-08-08T05:21:39;9.00;;;2.03;;
19519;SDS011;9904;52.246;20.898;2023-08-08T05:24:05;6.33;;;1.93;;
19519;SDS011;9904;52.246;20.898;2023-08-08T05:26:32;7.67;;;1.93;;
19519;SDS011;9904;52.246;20.898;2023-08-08T05:28:59;5.40;;;1.83;;
19519;SDS011;9904;52.246;20.898;2023-08-08T05:31:25;7.63;;;1.73;;
19519;SDS011;9904;52.246;20.898;2023-08-08T05:33:52;6.00;;;1.83;;
19519;SDS011;9904;52.246;20.898;2023-08-08T05:36:18;18.27;;;2.17;;
19519;SDS011;9904;52.246;20.898;2023-08-08T05:38:45;7.53;;;1.97;;
19519;SDS011;9904;52.246;20.898;2023-08-08T05:41:12;9.37;;;2.20;;
19519;SDS011;9904;52.246;20.898;2023-08-08T05:43:38;8.50;;;1.93;;
19519;SDS011;9904;52.246;20.898;2023-08-08T05:46:05;13.87;;;1.80;;
19519;SDS011;9904;52.246;20.898;2023-08-08T05:48:31;8.70;;;1.93;;
19519;SDS011;9904;52.246;20.898;2023-08-08T05:50:58;11.30;;;1.93;;
19519;SDS011;9904;52.246;20.898;2023-08-08T05:53:26;10.53;;;2.10;;
19519;SDS011;9904;52.246;20.898;2023-08-08T05:55:52;10.73;;;2.27;;
19519;SDS011;9904;52.246;20.898;2023-08-08T05:58:19;9.43;;;2.40;;
19519;SDS011;9904;52.246;20.898;2023-08-08T06:00:46;7.60;;;2.13;;
19519;SDS011;9904;52.246;20.898;2023-08-08T06:03:12;4.93;;;1.73;;
19519;SDS011;9904;52.246;20.898;2023-08-08T06:05:39;6.30;;;2.13;;
19519;SDS011;9904;52.246;20.898;2023-08-08T06:08:06;8.13;;;2.07;;
19519;SDS011;9904;52.246;20.898;2023-08-08T06:10:37;7.73;;;1.93;;
19519;SDS011;9904;52.246;20.898;2023-08-08T06:13:04;4.93;;;1.80;;
19519;SDS011;9904;52.246;20.898;2023-08-08T06:15:30;7.47;;;1.80;;
19519;SDS011;9904;52.246;20.898;2023-08-08T06:17:57;4.60;;;1.80;;
19519;SDS011;9904;52.246;20.898;2023-08-08T06:20:24;9.37;;;2.00;;
19519;SDS011;9904;52.246;20.898;2023-08-08T06:22:51;8.40;;;1.87;;
19519;SDS011;9904;52.246;20.898;2023-08-08T06:25:18;3.17;;;1.80;;
19519;SDS011;9904;52.246;20.898;2023-08-08T06:27:44;7.13;;;2.07;;
19519;SDS011;9904;52.246;20.898;2023-08-08T06:30:13;8.37;;;2.53;;
19519;SDS011;9904;52.246;20.898;2023-08-08T06:32:40;5.40;;;2.00;;
19519;SDS011;9904;52.246;20.898;2023-08-08T06:35:06;9.20;;;2.07;;
19519;SDS011;9904;52.246;20.898;2023-08-08T06:37:35;9.83;;;2.00;;
19519;SDS011;9904;52.246;20.898;2023-08-08T06:40:02;7.77;;;2.37;;
19519;SDS011;9904;52.246;20.898;2023-08-08T06:42:29;9.70;;;2.07;;
19519;SDS011;9904;52.246;20.898;2023-08-08T06:44:55;7.50;;;1.97;;
19519;SDS011;9904;52.246;20.898;2023-08-08T06:47:22;7.03;;;1.63;;
19519;SDS011;9904;52.246;20.898;2023-08-08T06:49:49;9.73;;;2.20;;
19519;SDS011;9904;52.246;20.898;2023-08-08T06:52:16;9.10;;;2.73;;
19519;SDS011;9904;52.246;20.898;2023-08-08T06:54:42;16.67;;;1.80;;
19519;SDS011;9904;52.246;20.898;2023-08-08T06:57:09;6.53;;;1.77;;
19519;SDS011;9904;52.246;20.898;2023-08-08T06:59:35;6.87;;;1.80;;
19519;SDS011;9904;52.246;20.898;2023-08-08T07:02:02;5.17;;;1.80;;
19519;SDS011;9904;52.246;20.898;2023-08-08T07:04:29;9.73;;;1.80;;
19519;SDS011;9904;52.246;20.898;2023-08-08T07:06:56;5.53;;;1.77;;
19519;SDS011;9904;52.246;20.898;2023-08-08T07:09:23;11.23;;;2.40;;
19519;SDS011;9904;52.246;20.898;2023-08-08T07:11:50;10.47;;;2.13;;
19519;SDS011;9904;52.246;20.898;2023-08-08T07:14:17;3.70;;;1.50;;
19519;SDS011;9904;52.246;20.898;2023-08-08T07:16:44;7.43;;;1.90;;
19519;SDS011;9904;52.246;20.898;2023-08-08T07:19:10;6.30;;;1.60;;
19519;SDS011;9904;52.246;20.898;2023-08-08T07:21:38;7.13;;;1.93;;
19519;SDS011;9904;52.246;20.898;2023-08-08T07:24:04;8.40;;;2.13;;
19519;SDS011;9904;52.246;20.898;2023-08-08T07:26:31;5.33;;;1.90;;
19519;SDS011;9904;52.246;20.898;2023-08-08T07:28:57;6.33;;;1.70;;
19519;SDS011;9904;52.246;20.898;2023-08-08T07:31:24;10.60;;;2.07;;
19519;SDS011;9904;52.246;20.898;2023-08-08T07:33:51;6.07;;;1.73;;
19519;SDS011;9904;52.246;20.898;2023-08-08T07:36:18;15.23;;;2.10;;
19519;SDS011;9904;52.246;20.898;2023-08-08T07:38:44;8.47;;;2.00;;
19519;SDS011;9904;52.246;20.898;2023-08-08T07:41:11;10.02;;;2.15;;
19519;SDS011;9904;52.246;20.898;2023-08-08T07:43:37;6.43;;;1.70;;
19519;SDS011;9904;52.246;20.898;2023-08-08T07:46:04;7.53;;;1.83;;
19519;SDS011;9904;52.246;20.898;2023-08-08T07:48:30;8.40;;;2.00;;
19519;SDS011;9904;52.246;20.898;2023-08-08T07:50:57;6.53;;;1.70;;
19519;SDS011;9904;52.246;20.898;2023-08-08T07:53:24;8.47;;;1.90;;
19519;SDS011;9904;52.246;20.898;2023-08-08T07:55:50;5.97;;;1.90;;
19519;SDS011;9904;52.246;20.898;2023-08-08T07:58:17;4.90;;;1.97;;
19519;SDS011;9904;52.246;20.898;2023-08-08T08:00:44;16.97;;;2.23;;
19519;SDS011;9904;52.246;20.898;2023-08-08T08:03:10;9.07;;;1.83;;
19519;SDS011;9904;52.246;20.898;2023-08-08T08:05:37;8.83;;;1.63;;
19519;SDS011;9904;52.246;20.898;2023-08-08T08:08:04;10.13;;;2.00;;
19519;SDS011;9904;52.246;20.898;2023-08-08T08:10:31;5.17;;;1.70;;
19519;SDS011;9904;52.246;20.898;2023-08-08T08:12:57;8.30;;;1.90;;
19519;SDS011;9904;52.246;20.898;2023-08-08T08:15:25;7.13;;;1.70;;
19519;SDS011;9904;52.246;20.898;2023-08-08T08:17:51;9.43;;;1.73;;
19519;SDS011;9904;52.246;20.898;2023-08-08T08:20:18;12.00;;;2.37;;
19519;SDS011;9904;52.246;20.898;2023-08-08T08:22:46;8.37;;;1.67;;
19519;SDS011;9904;52.246;20.898;2023-08-08T08:25:14;11.07;;;1.90;;
19519;SDS011;9904;52.246;20.898;2023-08-08T08:27:41;10.87;;;2.03;;
19519;SDS011;9904;52.246;20.898;2023-08-08T08:30:08;7.53;;;2.20;;
19519;SDS011;9904;52.246;20.898;2023-08-08T08:32:37;6.50;;;2.13;;
19519;SDS011;9904;52.246;20.898;2023-08-08T08:35:05;5.23;;;1.60;;
19519;SDS011;9904;52.246;20.898;2023-08-08T08:37:33;7.13;;;1.53;;
19519;SDS011;9904;52.246;20.898;2023-08-08T08:40:00;4.07;;;1.50;;
19519;SDS011;9904;52.246;20.898;2023-08-08T08:42:27;7.90;;;1.83;;
19519;SDS011;9904;52.246;20.898;2023-08-08T08:44:56;7.40;;;1.70;;
19519;SDS011;9904;52.246;20.898;2023-08-08T08:47:24;4.63;;;1.60;;
19519;SDS011;9904;52.246;20.898;2023-08-08T08:49:51;7.93;;;1.67;;
19519;SDS011;9904;52.246;20.898;2023-08-08T08:52:18;10.57;;;1.80;;
19519;SDS011;9904;52.246;20.898;2023-08-08T08:54:45;9.27;;;1.73;;
19519;SDS011;9904;52.246;20.898;2023-08-08T08:57:12;5.50;;;1.47;;
19519;SDS011;9904;52.246;20.898;2023-08-08T08:59:38;11.50;;;1.87;;
19519;SDS011;9904;52.246;20.898;2023-08-08T09:02:05;11.33;;;2.07;;
19519;SDS011;9904;52.246;20.898;2023-08-08T09:04:33;8.40;;;1.60;;
19519;SDS011;9904;52.246;20.898;2023-08-08T09:07:01;7.20;;;1.80;;
19519;SDS011;9904;52.246;20.898;2023-08-08T09:09:31;7.67;;;1.70;;
19519;SDS011;9904;52.246;20.898;2023-08-08T09:11:58;14.67;;;2.37;;
19519;SDS011;9904;52.246;20.898;2023-08-08T09:14:26;3.40;;;1.40;;
19519;SDS011;9904;52.246;20.898;2023-08-08T09:16:53;8.73;;;1.47;;
19519;SDS011;9904;52.246;20.898;2023-08-08T09:19:22;6.57;;;1.30;;
19519;SDS011;9904;52.246;20.898;2023-08-08T09:21:50;5.17;;;1.57;;
19519;SDS011;9904;52.246;20.898;2023-08-08T09:24:18;2.83;;;1.37;;
19519;SDS011;9904;52.246;20.898;2023-08-08T09:26:44;8.60;;;1.60;;
19519;SDS011;9904;52.246;20.898;2023-08-08T09:29:12;4.57;;;1.20;;
19519;SDS011;9904;52.246;20.898;2023-08-08T09:31:40;5.73;;;1.50;;
19519;SDS011;9904;52.246;20.898;2023-08-08T09:34:07;4.83;;;1.20;;
19519;SDS011;9904;52.246;20.898;2023-08-08T09:36:34;2.50;;;1.30;;
19519;SDS011;9904;52.246;20.898;2023-08-08T09:39:03;6.97;;;1.40;;
19519;SDS011;9904;52.246;20.898;2023-08-08T09:41:31;7.17;;;1.57;;
19519;SDS011;9904;52.246;20.898;2023-08-08T09:43:58;5.00;;;1.53;;
19519;SDS011;9904;52.246;20.898;2023-08-08T09:46:25;6.17;;;1.40;;
19519;SDS011;9904;52.246;20.898;2023-08-08T09:48:51;6.10;;;1.67;;
19519;SDS011;9904;52.246;20.898;2023-08-08T09:51:18;7.60;;;1.50;;
19519;SDS011;9904;52.246;20.898;2023-08-08T09:53:46;7.60;;;1.33;;
19519;SDS011;9904;52.246;20.898;2023-08-08T09:56:13;2.73;;;1.40;;
19519;SDS011;9904;52.246;20.898;2023-08-08T09:58:40;6.70;;;1.50;;
19519;SDS011;9904;52.246;20.898;2023-08-08T10:01:09;4.30;;;1.20;;
19519;SDS011;9904;52.246;20.898;2023-08-08T10:03:36;4.13;;;1.10;;
19519;SDS011;9904;52.246;20.898;2023-08-08T10:06:04;11.60;;;1.87;;
19519;SDS011;9904;52.246;20.898;2023-08-08T10:08:31;6.30;;;1.40;;
19519;SDS011;9904;52.246;20.898;2023-08-08T10:10:58;6.70;;;1.30;;
19519;SDS011;9904;52.246;20.898;2023-08-08T10:13:26;6.10;;;1.53;;
19519;SDS011;9904;52.246;20.898;2023-08-08T10:15:53;6.47;;;1.53;;
19519;SDS011;9904;52.246;20.898;2023-08-08T10:18:21;6.23;;;1.23;;
19519;SDS011;9904;52.246;20.898;2023-08-08T10:20:48;9.33;;;1.50;;
19519;SDS011;9904;52.246;20.898;2023-08-08T10:23:18;3.63;;;1.40;;
19519;SDS011;9904;52.246;20.898;2023-08-08T10:25:46;7.20;;;1.40;;
19519;SDS011;9904;52.246;20.898;2023-08-08T10:28:16;4.77;;;1.20;;
19519;SDS011;9904;52.246;20.898;2023-08-08T10:30:57;8.93;;;1.67;;
19519;SDS011;9904;52.246;20.898;2023-08-08T10:33:28;6.10;;;1.50;;
19519;SDS011;9904;52.246;20.898;2023-08-08T10:36:07;7.43;;;2.00;;
19519;SDS011;9904;52.246;20.898;2023-08-08T10:38:44;5.77;;;1.10;;
19519;SDS011;9904;52.246;20.898;2023-08-08T10:41:14;3.90;;;1.23;;
19519;SDS011;9904;52.246;20.898;2023-08-08T10:43:49;6.73;;;1.40;;
19519;SDS011;9904;52.246;20.898;2023-08-08T10:46:32;7.23;;;1.40;;
19519;SDS011;9904;52.246;20.898;2023-08-08T10:49:05;5.60;;;1.33;;
19519;SDS011;9904;52.246;20.898;2023-08-08T10:51:33;4.00;;;1.23;;
19519;SDS011;9904;52.246;20.898;2023-08-08T10:54:04;2.30;;;1.00;;
19519;SDS011;9904;52.246;20.898;2023-08-08T10:56:34;9.03;;;1.07;;
19519;SDS011;9904;52.246;20.898;2023-08-08T10:59:11;4.20;;;1.30;;
19519;SDS011;9904;52.246;20.898;2023-08-08T11:01:44;10.33;;;1.20;;
19519;SDS011;9904;52.246;20.898;2023-08-08T11:04:11;4.40;;;1.00;;
19519;SDS011;9904;52.246;20.898;2023-08-08T11:06:39;7.43;;;1.40;;
19519;SDS011;9904;52.246;20.898;2023-08-08T11:09:06;4.43;;;1.27;;
19519;SDS011;9904;52.246;20.898;2023-08-08T11:11:42;8.40;;;1.20;;
19519;SDS011;9904;52.246;20.898;2023-08-08T11:14:16;5.97;;;1.40;;
19519;SDS011;9904;52.246;20.898;2023-08-08T11:16:44;3.57;;;1.23;;
19519;SDS011;9904;52.246;20.898;2023-08-08T11:19:12;4.57;;;1.10;;
19519;SDS011;9904;52.246;20.898;2023-08-08T11:21:42;5.83;;;1.03;;
19519;SDS011;9904;52.246;20.898;2023-08-08T11:24:09;5.90;;;1.33;;
19519;SDS011;9904;52.246;20.898;2023-08-08T11:26:37;15.43;;;1.73;;
19519;SDS011;9904;52.246;20.898;2023-08-08T11:29:06;5.67;;;1.10;;
19519;SDS011;9904;52.246;20.898;2023-08-08T11:31:35;3.80;;;1.00;;
19519;SDS011;9904;52.246;20.898;2023-08-08T11:34:02;6.33;;;1.00;;
19519;SDS011;9904;52.246;20.898;2023-08-08T11:36:31;4.30;;;1.00;;
19519;SDS011;9904;52.246;20.898;2023-08-08T11:39:01;5.60;;;1.33;;
19519;SDS011;9904;52.246;20.898;2023-08-08T11:41:34;4.67;;;1.23;;
19519;SDS011;9904;52.246;20.898;2023-08-08T11:44:02;3.80;;;1.00;;
19519;SDS011;9904;52.246;20.898;2023-08-08T11:46:33;2.43;;;1.00;;
19519;SDS011;9904;52.246;20.898;2023-08-08T11:49:06;3.60;;;1.20;;
19519;SDS011;9904;52.246;20.898;2023-08-08T11:51:33;2.80;;;0.73;;
19519;SDS011;9904;52.246;20.898;2023-08-08T11:54:02;5.17;;;1.10;;
19519;SDS011;9904;52.246;20.898;2023-08-08T11:56:32;2.07;;;0.83;;
19519;SDS011;9904;52.246;20.898;2023-08-08T11:59:01;6.10;;;0.80;;
19519;SDS011;9904;52.246;20.898;2023-08-08T12:01:28;1.67;;;0.90;;
19519;SDS011;9904;52.246;20.898;2023-08-08T12:03:57;5.07;;;0.80;;
19519;SDS011;9904;52.246;20.898;2023-08-08T12:06:27;4.57;;;0.87;;
19519;SDS011;9904;52.246;20.898;2023-08-08T12:08:55;2.17;;;1.10;;
19519;SDS011;9904;52.246;20.898;2023-08-08T12:11:22;2.65;;;0.98;;
19519;SDS011;9904;52.246;20.898;2023-08-08T12:13:57;2.85;;;0.88;;
19519;SDS011;9904;52.246;20.898;2023-08-08T12:16:27;4.88;;;0.98;;
19519;SDS011;9904;52.246;20.898;2023-08-08T12:19:00;4.67;;;1.07;;
19519;SDS011;9904;52.246;20.898;2023-08-08T12:21:28;3.60;;;0.80;;
19519;SDS011;9904;52.246;20.898;2023-08-08T12:23:55;1.90;;;1.00;;
19519;SDS011;9904;52.246;20.898;2023-08-08T12:26:22;3.63;;;1.20;;
19519;SDS011;9904;52.246;20.898;2023-08-08T12:28:49;2.60;;;0.90;;
19519;SDS011;9904;52.246;20.898;2023-08-08T12:31:17;4.33;;;1.00;;
19519;SDS011;9904;52.246;20.898;2023-08-08T12:33:43;3.23;;;0.90;;
19519;SDS011;9904;52.246;20.898;2023-08-08T12:36:12;1.17;;;0.77;;
19519;SDS011;9904;52.246;20.898;2023-08-08T12:38:39;7.07;;;0.80;;
19519;SDS011;9904;52.246;20.898;2023-08-08T12:41:06;4.27;;;0.87;;
19519;SDS011;9904;52.246;20.898;2023-08-08T12:43:33;6.80;;;0.70;;
19519;SDS011;9904;52.246;20.898;2023-08-08T12:46:01;3.83;;;0.87;;
19519;SDS011;9904;52.246;20.898;2023-08-08T12:48:28;3.20;;;0.90;;
19519;SDS011;9904;52.246;20.898;2023-08-08T12:50:55;4.57;;;1.13;;
19519;SDS011;9904;52.246;20.898;2023-08-08T12:53:21;1.33;;;0.80;;
19519;SDS011;9904;52.246;20.898;2023-08-08T12:55:48;1.23;;;0.67;;
19519;SDS011;9904;52.246;20.898;2023-08-08T12:58:15;2.57;;;1.00;;
19519;SDS011;9904;52.246;20.898;2023-08-08T13:00:41;2.70;;;0.93;;
19519;SDS011;9904;52.246;20.898;2023-08-08T13:03:08;4.83;;;1.03;;
19519;SDS011;9904;52.246;20.898;2023-08-08T13:05:35;2.20;;;1.10;;
19519;SDS011;9904;52.246;20.898;2023-08-08T13:08:03;3.03;;;0.80;;
19519;SDS011;9904;52.246;20.898;2023-08-08T13:10:29;3.33;;;1.10;;
19519;SDS011;9904;52.246;20.898;2023-08-08T13:12:57;3.70;;;0.87;;
19519;SDS011;9904;52.246;20.898;2023-08-08T13:15:23;7.60;;;1.00;;
19519;SDS011;9904;52.246;20.898;2023-08-08T13:17:50;1.97;;;0.83;;
19519;SDS011;9904;52.246;20.898;2023-08-08T13:20:17;3.73;;;1.10;;
19519;SDS011;9904;52.246;20.898;2023-08-08T13:22:44;1.47;;;0.90;;
19519;SDS011;9904;52.246;20.898;2023-08-08T13:25:10;2.73;;;1.03;;
19519;SDS011;9904;52.246;20.898;2023-08-08T13:27:37;5.27;;;0.97;;
19519;SDS011;9904;52.246;20.898;2023-08-08T13:30:04;3.23;;;1.00;;
19519;SDS011;9904;52.246;20.898;2023-08-08T13:32:31;6.13;;;1.17;;
19519;SDS011;9904;52.246;20.898;2023-08-08T13:34:58;0.80;;;0.60;;
19519;SDS011;9904;52.246;20.898;2023-08-08T13:37:25;2.87;;;1.53;;
19519;SDS011;9904;52.246;20.898;2023-08-08T13:39:51;2.60;;;0.80;;
19519;SDS011;9904;52.246;20.898;2023-08-08T13:42:18;9.37;;;1.17;;
19519;SDS011;9904;52.246;20.898;2023-08-08T13:44:45;2.17;;;0.90;;
19519;SDS011;9904;52.246;20.898;2023-08-08T13:47:11;2.90;;;0.90;;
19519;SDS011;9904;52.246;20.898;2023-08-08T13:49:38;1.87;;;1.10;;
19519;SDS011;9904;52.246;20.898;2023-08-08T13:52:05;2.90;;;1.07;;
19519;SDS011;9904;52.246;20.898;2023-08-08T13:54:31;5.60;;;1.00;;
19519;SDS011;9904;52.246;20.898;2023-08-08T13:56:58;5.20;;;0.80;;
19519;SDS011;9904;52.246;20.898;2023-08-08T13:59:25;3.87;;;1.10;;
19519;SDS011;9904;52.246;20.898;2023-08-08T14:01:53;3.53;;;0.90;;
19519;SDS011;9904;52.246;20.898;2023-08-08T14:04:19;2.10;;;1.00;;
19519;SDS011;9904;52.246;20.898;2023-08-08T14:06:46;3.23;;;1.00;;
19519;SDS011;9904;52.246;20.898;2023-08-08T14:09:12;1.03;;;0.70;;
19519;SDS011;9904;52.246;20.898;2023-08-08T14:11:41;5.23;;;1.10;;
19519;SDS011;9904;52.246;20.898;2023-08-08T14:14:08;2.57;;;0.90;;
19519;SDS011;9904;52.246;20.898;2023-08-08T14:16:35;6.27;;;1.63;;
19519;SDS011;9904;52.246;20.898;2023-08-08T14:19:02;4.20;;;1.17;;
19519;SDS011;9904;52.246;20.898;2023-08-08T14:21:29;3.97;;;1.27;;
19519;SDS011;9904;52.246;20.898;2023-08-08T14:23:55;6.17;;;1.23;;
19519;SDS011;9904;52.246;20.898;2023-08-08T14:26:22;2.97;;;1.20;;
19519;SDS011;9904;52.246;20.898;2023-08-08T14:28:48;4.67;;;1.13;;
19519;SDS011;9904;52.246;20.898;2023-08-08T14:31:15;4.50;;;1.17;;
19519;SDS011;9904;52.246;20.898;2023-08-08T14:33:42;1.73;;;0.90;;
19519;SDS011;9904;52.246;20.898;2023-08-08T14:36:09;5.70;;;1.23;;
19519;SDS011;9904;52.246;20.898;2023-08-08T14:38:35;5.07;;;1.37;;
19519;SDS011;9904;52.246;20.898;2023-08-08T14:41:03;2.30;;;0.90;;
19519;SDS011;9904;52.246;20.898;2023-08-08T14:43:30;5.97;;;2.27;;
19519;SDS011;9904;52.246;20.898;2023-08-08T14:45:57;4.67;;;1.70;;